sensor_id;sensor_type;location;lat;lon;timestamp;P1;durP1;ratioP1;P2;durP2;ratioP2
19883;SDS011;10104;50.732;10.174;2023-04-12T00:00:22;5.00;;;2.50;;
19883;SDS011;10104;50.732;10.174;2023-04-12T00:02:44;6.17;;;2.53;;
19883;SDS011;10104;50.732;10.174;2023-04-12T00:05:06;7.03;;;2.50;;
19883;SDS011;10104;50.732;10.174;2023-04-12T00:07:30;5.87;;;2.10;;
19883;SDS011;10104;50.732;10.174;2023-04-12T00:09:52;6.13;;;2.17;;
19883;SDS011;10104;50.732;10.174;2023-04-12T00:12:14;7.13;;;2.30;;
19883;SDS011;10104;50.732;10.174;2023-04-12T00:14:35;4.17;;;1.90;;
19883;SDS011;10104;50.732;10.174;2023-04-12T00:16:56;5.00;;;2.10;;
19883;SDS011;10104;50.732;10.174;2023-04-12T00:19:18;3.87;;;2.30;;
19883;SDS011;10104;50.732;10.174;2023-04-12T00:21:39;4.63;;;2.43;;
19883;SDS011;10104;50.732;10.174;2023-04-12T00:24:01;7.30;;;2.50;;
19883;SDS011;10104;50.732;10.174;2023-04-12T00:26:22;3.27;;;2.20;;
19883;SDS011;10104;50.732;10.174;2023-04-12T00:28:45;8.37;;;3.00;;
19883;SDS011;10104;50.732;10.174;2023-04-12T00:31:07;7.43;;;2.90;;
19883;SDS011;10104;50.732;10.174;2023-04-12T00:33:29;6.43;;;3.67;;
19883;SDS011;10104;50.732;10.174;2023-04-12T00:35:50;7.87;;;2.70;;
19883;SDS011;10104;50.732;10.174;2023-04-12T00:38:12;5.23;;;2.13;;
19883;SDS011;10104;50.732;10.174;2023-04-12T00:40:35;5.00;;;1.80;;
19883;SDS011;10104;50.732;10.174;2023-04-12T00:43:01;4.23;;;2.30;;
19883;SDS011;10104;50.732;10.174;2023-04-12T00:45:23;3.83;;;2.07;;
19883;SDS011;10104;50.732;10.174;2023-04-12T00:47:44;4.43;;;2.07;;
19883;SDS011;10104;50.732;10.174;2023-04-12T00:50:06;3.67;;;2.20;;
19883;SDS011;10104;50.732;10.174;2023-04-12T00:52:28;4.00;;;2.23;;
19883;SDS011;10104;50.732;10.174;2023-04-12T00:54:54;4.53;;;2.23;;
19883;SDS011;10104;50.732;10.174;2023-04-12T00:57:15;5.60;;;2.33;;
19883;SDS011;10104;50.732;10.174;2023-04-12T00:59:37;6.30;;;2.33;;
19883;SDS011;10104;50.732;10.174;2023-04-12T01:01:59;6.10;;;2.50;;
19883;SDS011;10104;50.732;10.174;2023-04-12T01:04:21;4.07;;;2.27;;
19883;SDS011;10104;50.732;10.174;2023-04-12T01:09:42;6.03;;;2.10;;
19883;SDS011;10104;50.732;10.174;2023-04-12T01:15:10;4.27;;;2.03;;
19883;SDS011;10104;50.732;10.174;2023-04-12T01:17:37;4.20;;;2.20;;
19883;SDS011;10104;50.732;10.174;2023-04-12T01:20:18;4.70;;;2.47;;
19883;SDS011;10104;50.732;10.174;2023-04-12T01:25:36;3.23;;;1.93;;
19883;SDS011;10104;50.732;10.174;2023-04-12T01:28:06;5.90;;;2.30;;
19883;SDS011;10104;50.732;10.174;2023-04-12T01:30:30;6.50;;;2.40;;
19883;SDS011;10104;50.732;10.174;2023-04-12T01:32:53;5.03;;;2.40;;
19883;SDS011;10104;50.732;10.174;2023-04-12T01:35:17;4.57;;;2.00;;
19883;SDS011;10104;50.732;10.174;2023-04-12T01:37:41;6.63;;;2.20;;
19883;SDS011;10104;50.732;10.174;2023-04-12T01:40:03;5.37;;;2.40;;
19883;SDS011;10104;50.732;10.174;2023-04-12T01:42:27;6.93;;;2.30;;
19883;SDS011;10104;50.732;10.174;2023-04-12T01:44:49;6.73;;;2.30;;
19883;SDS011;10104;50.732;10.174;2023-04-12T01:47:11;6.57;;;2.30;;
19883;SDS011;10104;50.732;10.174;2023-04-12T01:49:35;7.50;;;2.40;;
19883;SDS011;10104;50.732;10.174;2023-04-12T01:52:11;4.03;;;2.60;;
19883;SDS011;10104;50.732;10.174;2023-04-12T01:54:38;5.13;;;2.47;;
19883;SDS011;10104;50.732;10.174;2023-04-12T01:57:03;5.93;;;2.60;;
19883;SDS011;10104;50.732;10.174;2023-04-12T01:59:27;9.20;;;2.80;;
19883;SDS011;10104;50.732;10.174;2023-04-12T02:01:52;5.00;;;2.07;;
19883;SDS011;10104;50.732;10.174;2023-04-12T02:04:14;4.43;;;2.30;;
19883;SDS011;10104;50.732;10.174;2023-04-12T02:06:39;5.17;;;2.20;;
19883;SDS011;10104;50.732;10.174;2023-04-12T02:09:02;3.80;;;2.13;;
19883;SDS011;10104;50.732;10.174;2023-04-12T02:11:26;4.20;;;2.23;;
19883;SDS011;10104;50.732;10.174;2023-04-12T02:13:47;7.13;;;2.20;;
19883;SDS011;10104;50.732;10.174;2023-04-12T02:16:09;3.67;;;2.10;;
19883;SDS011;10104;50.732;10.174;2023-04-12T02:18:31;6.27;;;2.23;;
19883;SDS011;10104;50.732;10.174;2023-04-12T02:20:53;7.03;;;2.10;;
19883;SDS011;10104;50.732;10.174;2023-04-12T02:23:15;4.47;;;2.10;;
19883;SDS011;10104;50.732;10.174;2023-04-12T02:25:36;7.23;;;2.20;;
19883;SDS011;10104;50.732;10.174;2023-04-12T02:27:59;5.00;;;2.30;;
19883;SDS011;10104;50.732;10.174;2023-04-12T02:30:21;5.37;;;2.17;;
19883;SDS011;10104;50.732;10.174;2023-04-12T02:32:44;5.47;;;1.80;;
19883;SDS011;10104;50.732;10.174;2023-04-12T02:35:06;4.97;;;1.93;;
19883;SDS011;10104;50.732;10.174;2023-04-12T02:37:28;3.40;;;1.93;;
19883;SDS011;10104;50.732;10.174;2023-04-12T02:39:50;5.43;;;2.20;;
19883;SDS011;10104;50.732;10.174;2023-04-12T02:42:12;5.77;;;2.30;;
19883;SDS011;10104;50.732;10.174;2023-04-12T02:44:33;3.90;;;1.90;;
19883;SDS011;10104;50.732;10.174;2023-04-12T02:46:55;5.43;;;2.33;;
19883;SDS011;10104;50.732;10.174;2023-04-12T02:49:17;3.83;;;1.90;;
19883;SDS011;10104;50.732;10.174;2023-04-12T02:51:38;5.57;;;2.47;;
19883;SDS011;10104;50.732;10.174;2023-04-12T02:54:00;4.30;;;2.47;;
19883;SDS011;10104;50.732;10.174;2023-04-12T02:56:22;4.13;;;2.40;;
19883;SDS011;10104;50.732;10.174;2023-04-12T02:58:44;3.00;;;2.20;;
19883;SDS011;10104;50.732;10.174;2023-04-12T03:01:06;7.07;;;2.30;;
19883;SDS011;10104;50.732;10.174;2023-04-12T03:03:28;5.00;;;2.20;;
19883;SDS011;10104;50.732;10.174;2023-04-12T03:05:52;3.93;;;1.90;;
19883;SDS011;10104;50.732;10.174;2023-04-12T03:08:13;3.70;;;1.83;;
19883;SDS011;10104;50.732;10.174;2023-04-12T03:10:35;6.40;;;2.30;;
19883;SDS011;10104;50.732;10.174;2023-04-12T03:12:56;5.40;;;2.27;;
19883;SDS011;10104;50.732;10.174;2023-04-12T03:15:18;3.20;;;1.83;;
19883;SDS011;10104;50.732;10.174;2023-04-12T03:17:40;6.20;;;2.43;;
19883;SDS011;10104;50.732;10.174;2023-04-12T03:20:03;6.97;;;2.60;;
19883;SDS011;10104;50.732;10.174;2023-04-12T03:22:29;5.57;;;2.33;;
19883;SDS011;10104;50.732;10.174;2023-04-12T03:24:51;7.07;;;2.27;;
19883;SDS011;10104;50.732;10.174;2023-04-12T03:27:12;5.97;;;2.03;;
19883;SDS011;10104;50.732;10.174;2023-04-12T03:29:34;7.10;;;2.40;;
19883;SDS011;10104;50.732;10.174;2023-04-12T03:31:56;4.70;;;2.00;;
19883;SDS011;10104;50.732;10.174;2023-04-12T03:34:18;6.77;;;2.33;;
19883;SDS011;10104;50.732;10.174;2023-04-12T03:36:39;4.07;;;2.00;;
19883;SDS011;10104;50.732;10.174;2023-04-12T03:39:01;7.40;;;2.10;;
19883;SDS011;10104;50.732;10.174;2023-04-12T03:41:23;5.20;;;2.20;;
19883;SDS011;10104;50.732;10.174;2023-04-12T03:43:45;7.37;;;1.90;;
19883;SDS011;10104;50.732;10.174;2023-04-12T03:46:07;5.93;;;1.97;;
19883;SDS011;10104;50.732;10.174;2023-04-12T03:48:29;3.30;;;2.03;;
19883;SDS011;10104;50.732;10.174;2023-04-12T03:50:50;7.53;;;1.87;;
19883;SDS011;10104;50.732;10.174;2023-04-12T03:53:14;5.53;;;2.27;;
19883;SDS011;10104;50.732;10.174;2023-04-12T03:55:36;4.67;;;1.87;;
19883;SDS011;10104;50.732;10.174;2023-04-12T03:57:57;7.47;;;2.40;;
19883;SDS011;10104;50.732;10.174;2023-04-12T04:00:19;7.37;;;2.10;;
19883;SDS011;10104;50.732;10.174;2023-04-12T04:02:40;6.50;;;2.73;;
19883;SDS011;10104;50.732;10.174;2023-04-12T04:05:02;4.83;;;2.13;;
19883;SDS011;10104;50.732;10.174;2023-04-12T04:07:25;5.33;;;1.83;;
19883;SDS011;10104;50.732;10.174;2023-04-12T04:09:47;5.60;;;2.03;;
19883;SDS011;10104;50.732;10.174;2023-04-12T04:12:10;5.13;;;1.90;;
19883;SDS011;10104;50.732;10.174;2023-04-12T04:14:31;5.53;;;1.97;;
19883;SDS011;10104;50.732;10.174;2023-04-12T04:16:54;6.00;;;2.33;;
19883;SDS011;10104;50.732;10.174;2023-04-12T04:19:16;4.47;;;2.63;;
19883;SDS011;10104;50.732;10.174;2023-04-12T04:21:37;5.87;;;2.07;;
19883;SDS011;10104;50.732;10.174;2023-04-12T04:24:00;6.67;;;1.90;;
19883;SDS011;10104;50.732;10.174;2023-04-12T04:26:22;8.40;;;2.63;;
19883;SDS011;10104;50.732;10.174;2023-04-12T04:28:52;5.77;;;1.93;;
19883;SDS011;10104;50.732;10.174;2023-04-12T04:31:14;6.60;;;2.17;;
19883;SDS011;10104;50.732;10.174;2023-04-12T04:33:38;4.70;;;2.03;;
19883;SDS011;10104;50.732;10.174;2023-04-12T04:36:00;5.90;;;2.23;;
19883;SDS011;10104;50.732;10.174;2023-04-12T04:38:22;6.23;;;2.20;;
19883;SDS011;10104;50.732;10.174;2023-04-12T04:40:49;8.70;;;2.20;;
19883;SDS011;10104;50.732;10.174;2023-04-12T04:43:13;7.47;;;1.80;;
19883;SDS011;10104;50.732;10.174;2023-04-12T04:45:38;6.33;;;2.00;;
19883;SDS011;10104;50.732;10.174;2023-04-12T04:48:01;4.63;;;2.00;;
19883;SDS011;10104;50.732;10.174;2023-04-12T04:50:24;6.53;;;2.10;;
19883;SDS011;10104;50.732;10.174;2023-04-12T04:52:46;4.80;;;2.30;;
19883;SDS011;10104;50.732;10.174;2023-04-12T04:55:09;3.80;;;2.27;;
19883;SDS011;10104;50.732;10.174;2023-04-12T04:57:31;7.30;;;2.13;;
19883;SDS011;10104;50.732;10.174;2023-04-12T04:59:53;7.07;;;2.40;;
19883;SDS011;10104;50.732;10.174;2023-04-12T05:02:14;5.87;;;2.40;;
19883;SDS011;10104;50.732;10.174;2023-04-12T05:04:39;6.27;;;2.37;;
19883;SDS011;10104;50.732;10.174;2023-04-12T05:07:01;6.83;;;2.10;;
19883;SDS011;10104;50.732;10.174;2023-04-12T05:09:23;4.90;;;2.37;;
19883;SDS011;10104;50.732;10.174;2023-04-12T05:11:44;7.70;;;2.37;;
19883;SDS011;10104;50.732;10.174;2023-04-12T05:14:06;7.60;;;2.40;;
19883;SDS011;10104;50.732;10.174;2023-04-12T05:16:29;10.40;;;2.20;;
19883;SDS011;10104;50.732;10.174;2023-04-12T05:18:50;5.27;;;1.90;;
19883;SDS011;10104;50.732;10.174;2023-04-12T05:21:12;6.37;;;2.10;;
19883;SDS011;10104;50.732;10.174;2023-04-12T05:23:34;6.77;;;2.17;;
19883;SDS011;10104;50.732;10.174;2023-04-12T05:25:57;4.47;;;2.30;;
19883;SDS011;10104;50.732;10.174;2023-04-12T05:28:19;6.07;;;2.13;;
19883;SDS011;10104;50.732;10.174;2023-04-12T05:30:41;6.93;;;2.50;;
19883;SDS011;10104;50.732;10.174;2023-04-12T05:33:02;4.20;;;2.20;;
19883;SDS011;10104;50.732;10.174;2023-04-12T05:35:24;5.53;;;2.10;;
19883;SDS011;10104;50.732;10.174;2023-04-12T05:37:45;6.33;;;2.40;;
19883;SDS011;10104;50.732;10.174;2023-04-12T05:40:07;8.43;;;2.23;;
19883;SDS011;10104;50.732;10.174;2023-04-12T05:42:30;7.60;;;2.20;;
19883;SDS011;10104;50.732;10.174;2023-04-12T05:44:51;4.80;;;2.00;;
19883;SDS011;10104;50.732;10.174;2023-04-12T05:47:13;6.77;;;2.70;;
19883;SDS011;10104;50.732;10.174;2023-04-12T05:49:34;11.70;;;2.77;;
19883;SDS011;10104;50.732;10.174;2023-04-12T05:51:56;5.77;;;2.33;;
19883;SDS011;10104;50.732;10.174;2023-04-12T05:54:18;5.97;;;2.00;;
19883;SDS011;10104;50.732;10.174;2023-04-12T05:56:41;8.27;;;2.60;;
19883;SDS011;10104;50.732;10.174;2023-04-12T05:59:03;7.70;;;3.07;;
19883;SDS011;10104;50.732;10.174;2023-04-12T06:01:26;8.63;;;3.43;;
19883;SDS011;10104;50.732;10.174;2023-04-12T06:03:53;6.97;;;2.90;;
19883;SDS011;10104;50.732;10.174;2023-04-12T06:06:14;5.33;;;2.43;;
19883;SDS011;10104;50.732;10.174;2023-04-12T06:08:36;8.60;;;5.37;;
19883;SDS011;10104;50.732;10.174;2023-04-12T06:10:58;7.00;;;2.80;;
19883;SDS011;10104;50.732;10.174;2023-04-12T06:13:20;11.97;;;4.67;;
19883;SDS011;10104;50.732;10.174;2023-04-12T06:15:42;10.57;;;2.67;;
19883;SDS011;10104;50.732;10.174;2023-04-12T06:18:05;4.87;;;2.47;;
19883;SDS011;10104;50.732;10.174;2023-04-12T06:20:27;7.33;;;2.40;;
19883;SDS011;10104;50.732;10.174;2023-04-12T06:22:48;7.37;;;2.63;;
19883;SDS011;10104;50.732;10.174;2023-04-12T06:25:10;6.57;;;2.47;;
19883;SDS011;10104;50.732;10.174;2023-04-12T06:27:32;7.53;;;3.20;;
19883;SDS011;10104;50.732;10.174;2023-04-12T06:29:53;7.83;;;2.53;;
19883;SDS011;10104;50.732;10.174;2023-04-12T06:32:15;7.30;;;2.50;;
19883;SDS011;10104;50.732;10.174;2023-04-12T06:34:37;7.10;;;2.50;;
19883;SDS011;10104;50.732;10.174;2023-04-12T06:36:58;4.03;;;2.17;;
19883;SDS011;10104;50.732;10.174;2023-04-12T06:39:20;4.90;;;2.50;;
19883;SDS011;10104;50.732;10.174;2023-04-12T06:41:42;4.97;;;2.07;;
19883;SDS011;10104;50.732;10.174;2023-04-12T06:44:04;5.07;;;1.90;;
19883;SDS011;10104;50.732;10.174;2023-04-12T06:46:25;6.00;;;2.10;;
19883;SDS011;10104;50.732;10.174;2023-04-12T06:48:48;8.03;;;2.80;;
19883;SDS011;10104;50.732;10.174;2023-04-12T06:51:09;5.57;;;2.20;;
19883;SDS011;10104;50.732;10.174;2023-04-12T06:53:31;5.37;;;1.90;;
19883;SDS011;10104;50.732;10.174;2023-04-12T06:55:55;4.13;;;2.17;;
19883;SDS011;10104;50.732;10.174;2023-04-12T06:58:16;3.57;;;2.07;;
19883;SDS011;10104;50.732;10.174;2023-04-12T07:00:38;3.00;;;1.77;;
19883;SDS011;10104;50.732;10.174;2023-04-12T07:02:59;5.47;;;2.20;;
19883;SDS011;10104;50.732;10.174;2023-04-12T07:05:21;4.43;;;1.73;;
19883;SDS011;10104;50.732;10.174;2023-04-12T07:07:43;3.87;;;1.40;;
19883;SDS011;10104;50.732;10.174;2023-04-12T07:10:05;4.23;;;1.90;;
19883;SDS011;10104;50.732;10.174;2023-04-12T07:12:27;2.53;;;1.87;;
19883;SDS011;10104;50.732;10.174;2023-04-12T07:14:48;4.87;;;2.10;;
19883;SDS011;10104;50.732;10.174;2023-04-12T07:17:10;5.97;;;1.90;;
19883;SDS011;10104;50.732;10.174;2023-04-12T07:19:31;4.10;;;1.70;;
19883;SDS011;10104;50.732;10.174;2023-04-12T07:21:53;6.03;;;2.10;;
19883;SDS011;10104;50.732;10.174;2023-04-12T07:24:14;4.77;;;1.80;;
19883;SDS011;10104;50.732;10.174;2023-04-12T07:26:36;5.70;;;2.00;;
19883;SDS011;10104;50.732;10.174;2023-04-12T07:28:57;5.03;;;1.70;;
19883;SDS011;10104;50.732;10.174;2023-04-12T07:31:19;3.13;;;1.80;;
19883;SDS011;10104;50.732;10.174;2023-04-12T07:33:41;6.40;;;2.03;;
19883;SDS011;10104;50.732;10.174;2023-04-12T07:36:03;6.07;;;2.10;;
19883;SDS011;10104;50.732;10.174;2023-04-12T07:38:25;10.83;;;1.90;;
19883;SDS011;10104;50.732;10.174;2023-04-12T07:40:47;3.50;;;1.57;;
19883;SDS011;10104;50.732;10.174;2023-04-12T07:43:10;4.33;;;1.63;;
19883;SDS011;10104;50.732;10.174;2023-04-12T07:45:31;4.07;;;2.00;;
19883;SDS011;10104;50.732;10.174;2023-04-12T07:47:53;4.07;;;2.00;;
19883;SDS011;10104;50.732;10.174;2023-04-12T07:50:15;2.97;;;1.80;;
19883;SDS011;10104;50.732;10.174;2023-04-12T07:52:36;2.77;;;1.70;;
19883;SDS011;10104;50.732;10.174;2023-04-12T07:54:58;4.27;;;1.63;;
19883;SDS011;10104;50.732;10.174;2023-04-12T07:57:19;5.63;;;1.80;;
19883;SDS011;10104;50.732;10.174;2023-04-12T07:59:41;6.60;;;1.83;;
19883;SDS011;10104;50.732;10.174;2023-04-12T08:02:03;4.83;;;1.90;;
19883;SDS011;10104;50.732;10.174;2023-04-12T08:04:26;4.00;;;1.70;;
19883;SDS011;10104;50.732;10.174;2023-04-12T08:06:50;2.37;;;1.33;;
19883;SDS011;10104;50.732;10.174;2023-04-12T08:09:12;4.13;;;1.90;;
19883;SDS011;10104;50.732;10.174;2023-04-12T08:11:33;2.13;;;1.43;;
19883;SDS011;10104;50.732;10.174;2023-04-12T08:13:55;4.53;;;1.67;;
19883;SDS011;10104;50.732;10.174;2023-04-12T08:16:17;4.13;;;1.60;;
19883;SDS011;10104;50.732;10.174;2023-04-12T08:18:39;5.33;;;1.70;;
19883;SDS011;10104;50.732;10.174;2023-04-12T08:21:00;2.60;;;1.33;;
19883;SDS011;10104;50.732;10.174;2023-04-12T08:23:22;1.93;;;1.40;;
19883;SDS011;10104;50.732;10.174;2023-04-12T08:25:45;2.77;;;1.50;;
19883;SDS011;10104;50.732;10.174;2023-04-12T08:28:07;2.03;;;1.30;;
19883;SDS011;10104;50.732;10.174;2023-04-12T08:30:29;2.77;;;1.60;;
19883;SDS011;10104;50.732;10.174;2023-04-12T08:32:51;2.80;;;1.47;;
19883;SDS011;10104;50.732;10.174;2023-04-12T08:35:14;3.13;;;1.50;;
19883;SDS011;10104;50.732;10.174;2023-04-12T08:37:35;3.03;;;1.53;;
19883;SDS011;10104;50.732;10.174;2023-04-12T08:40:04;4.20;;;1.43;;
19883;SDS011;10104;50.732;10.174;2023-04-12T08:42:27;1.93;;;1.37;;
19883;SDS011;10104;50.732;10.174;2023-04-12T08:44:48;2.37;;;1.33;;
19883;SDS011;10104;50.732;10.174;2023-04-12T08:47:11;1.80;;;1.17;;
19883;SDS011;10104;50.732;10.174;2023-04-12T08:49:33;3.50;;;1.13;;
19883;SDS011;10104;50.732;10.174;2023-04-12T08:51:55;4.33;;;1.70;;
19883;SDS011;10104;50.732;10.174;2023-04-12T08:54:20;2.77;;;1.43;;
19883;SDS011;10104;50.732;10.174;2023-04-12T08:56:42;2.67;;;1.50;;
19883;SDS011;10104;50.732;10.174;2023-04-12T08:59:04;2.40;;;1.23;;
19883;SDS011;10104;50.732;10.174;2023-04-12T09:01:26;4.00;;;1.60;;
19883;SDS011;10104;50.732;10.174;2023-04-12T09:03:48;2.33;;;1.30;;
19883;SDS011;10104;50.732;10.174;2023-04-12T09:06:10;2.40;;;1.80;;
19883;SDS011;10104;50.732;10.174;2023-04-12T09:08:32;2.17;;;1.40;;
19883;SDS011;10104;50.732;10.174;2023-04-12T09:10:54;2.00;;;1.33;;
19883;SDS011;10104;50.732;10.174;2023-04-12T09:13:15;2.77;;;1.70;;
19883;SDS011;10104;50.732;10.174;2023-04-12T09:15:46;2.40;;;1.60;;
19883;SDS011;10104;50.732;10.174;2023-04-12T09:18:10;3.73;;;1.80;;
19883;SDS011;10104;50.732;10.174;2023-04-12T09:20:32;3.07;;;1.60;;
19883;SDS011;10104;50.732;10.174;2023-04-12T09:22:54;1.90;;;1.30;;
19883;SDS011;10104;50.732;10.174;2023-04-12T09:25:15;3.10;;;1.30;;
19883;SDS011;10104;50.732;10.174;2023-04-12T09:27:46;4.27;;;2.70;;
19883;SDS011;10104;50.732;10.174;2023-04-12T09:30:12;2.63;;;2.03;;
19883;SDS011;10104;50.732;10.174;2023-04-12T09:32:35;3.37;;;2.17;;
19883;SDS011;10104;50.732;10.174;2023-04-12T09:34:57;2.60;;;1.50;;
19883;SDS011;10104;50.732;10.174;2023-04-12T09:37:21;1.65;;;1.25;;
19883;SDS011;10104;50.732;10.174;2023-04-12T09:39:42;2.05;;;1.13;;
19883;SDS011;10104;50.732;10.174;2023-04-12T09:42:07;1.90;;;1.17;;
19883;SDS011;10104;50.732;10.174;2023-04-12T09:44:53;1.00;;;0.90;;
19883;SDS011;10104;50.732;10.174;2023-04-12T09:47:15;1.98;;;1.15;;
19883;SDS011;10104;50.732;10.174;2023-04-12T09:49:40;1.40;;;1.10;;
19883;SDS011;10104;50.732;10.174;2023-04-12T09:52:02;1.95;;;1.30;;
19883;SDS011;10104;50.732;10.174;2023-04-12T09:54:24;1.33;;;1.00;;
19883;SDS011;10104;50.732;10.174;2023-04-12T09:56:46;1.48;;;0.90;;
19883;SDS011;10104;50.732;10.174;2023-04-12T09:59:08;1.30;;;1.20;;
19883;SDS011;10104;50.732;10.174;2023-04-12T10:01:39;1.65;;;1.23;;
19883;SDS011;10104;50.732;10.174;2023-04-12T10:04:02;1.20;;;1.10;;
19883;SDS011;10104;50.732;10.174;2023-04-12T10:06:26;1.50;;;1.20;;
19883;SDS011;10104;50.732;10.174;2023-04-12T10:08:48;1.83;;;1.30;;
19883;SDS011;10104;50.732;10.174;2023-04-12T10:11:10;1.90;;;1.40;;
19883;SDS011;10104;50.732;10.174;2023-04-12T10:13:32;1.50;;;1.40;;
19883;SDS011;10104;50.732;10.174;2023-04-12T10:15:54;1.83;;;1.20;;
19883;SDS011;10104;50.732;10.174;2023-04-12T10:18:17;2.63;;;1.37;;
19883;SDS011;10104;50.732;10.174;2023-04-12T10:20:39;1.63;;;1.20;;
19883;SDS011;10104;50.732;10.174;2023-04-12T10:23:04;3.00;;;1.60;;
19883;SDS011;10104;50.732;10.174;2023-04-12T10:25:26;1.77;;;1.30;;
19883;SDS011;10104;50.732;10.174;2023-04-12T10:27:51;4.07;;;1.40;;
19883;SDS011;10104;50.732;10.174;2023-04-12T10:30:23;1.37;;;1.20;;
19883;SDS011;10104;50.732;10.174;2023-04-12T10:32:45;1.60;;;1.20;;
19883;SDS011;10104;50.732;10.174;2023-04-12T10:35:07;2.37;;;1.47;;
19883;SDS011;10104;50.732;10.174;2023-04-12T10:40:25;1.67;;;1.50;;
19883;SDS011;10104;50.732;10.174;2023-04-12T10:42:46;2.03;;;1.20;;
19883;SDS011;10104;50.732;10.174;2023-04-12T10:55:33;1.23;;;1.10;;
19883;SDS011;10104;50.732;10.174;2023-04-12T10:57:55;3.93;;;1.50;;
19883;SDS011;10104;50.732;10.174;2023-04-12T11:00:17;1.40;;;1.03;;
19883;SDS011;10104;50.732;10.174;2023-04-12T11:03:25;2.13;;;1.30;;
19883;SDS011;10104;50.732;10.174;2023-04-12T11:05:28;1.40;;;1.20;;
19883;SDS011;10104;50.732;10.174;2023-04-12T11:07:51;1.40;;;1.20;;
19883;SDS011;10104;50.732;10.174;2023-04-12T11:10:14;1.20;;;0.97;;
19883;SDS011;10104;50.732;10.174;2023-04-12T11:12:40;1.10;;;1.00;;
19883;SDS011;10104;50.732;10.174;2023-04-12T11:15:02;1.60;;;1.20;;
19883;SDS011;10104;50.732;10.174;2023-04-12T11:17:26;1.40;;;1.10;;
19883;SDS011;10104;50.732;10.174;2023-04-12T11:19:49;1.40;;;1.10;;
19883;SDS011;10104;50.732;10.174;2023-04-12T11:22:13;1.63;;;1.20;;
19883;SDS011;10104;50.732;10.174;2023-04-12T11:24:36;1.63;;;1.20;;
19883;SDS011;10104;50.732;10.174;2023-04-12T11:27:03;1.57;;;1.17;;
19883;SDS011;10104;50.732;10.174;2023-04-12T11:29:25;4.30;;;1.27;;
19883;SDS011;10104;50.732;10.174;2023-04-12T11:31:47;1.30;;;1.07;;
19883;SDS011;10104;50.732;10.174;2023-04-12T11:34:09;1.10;;;1.00;;
19883;SDS011;10104;50.732;10.174;2023-04-12T11:36:32;1.67;;;1.03;;
19883;SDS011;10104;50.732;10.174;2023-04-12T11:38:53;1.90;;;1.60;;
19883;SDS011;10104;50.732;10.174;2023-04-12T11:41:17;0.87;;;0.80;;
19883;SDS011;10104;50.732;10.174;2023-04-12T11:43:40;1.47;;;1.20;;
19883;SDS011;10104;50.732;10.174;2023-04-12T11:46:02;1.43;;;1.23;;
19883;SDS011;10104;50.732;10.174;2023-04-12T11:48:25;1.40;;;1.00;;
19883;SDS011;10104;50.732;10.174;2023-04-12T11:50:48;1.40;;;1.30;;
19883;SDS011;10104;50.732;10.174;2023-04-12T11:53:27;1.17;;;1.07;;
19883;SDS011;10104;50.732;10.174;2023-04-12T11:55:49;1.87;;;1.50;;
19883;SDS011;10104;50.732;10.174;2023-04-12T11:58:11;1.60;;;1.20;;
19883;SDS011;10104;50.732;10.174;2023-04-12T12:00:33;1.83;;;1.13;;
19883;SDS011;10104;50.732;10.174;2023-04-12T12:02:55;1.20;;;1.10;;
19883;SDS011;10104;50.732;10.174;2023-04-12T12:05:24;2.67;;;2.03;;
19883;SDS011;10104;50.732;10.174;2023-04-12T12:07:46;1.70;;;1.30;;
19883;SDS011;10104;50.732;10.174;2023-04-12T12:10:08;4.90;;;2.70;;
19883;SDS011;10104;50.732;10.174;2023-04-12T12:12:30;1.60;;;1.40;;
19883;SDS011;10104;50.732;10.174;2023-04-12T12:14:54;1.33;;;1.10;;
19883;SDS011;10104;50.732;10.174;2023-04-12T12:17:19;1.67;;;1.30;;
19883;SDS011;10104;50.732;10.174;2023-04-12T12:19:42;1.60;;;1.20;;
19883;SDS011;10104;50.732;10.174;2023-04-12T12:24:32;1.30;;;1.05;;
19883;SDS011;10104;50.732;10.174;2023-04-12T12:27:00;1.75;;;1.30;;
19883;SDS011;10104;50.732;10.174;2023-04-12T12:29:22;1.00;;;0.90;;
19883;SDS011;10104;50.732;10.174;2023-04-12T12:31:46;1.45;;;1.10;;
19883;SDS011;10104;50.732;10.174;2023-04-12T12:34:10;1.15;;;1.05;;
19883;SDS011;10104;50.732;10.174;2023-04-12T12:36:35;1.15;;;1.00;;
19883;SDS011;10104;50.732;10.174;2023-04-12T12:39:02;1.20;;;1.00;;
19883;SDS011;10104;50.732;10.174;2023-04-12T12:41:27;0.80;;;0.80;;
19883;SDS011;10104;50.732;10.174;2023-04-12T12:43:49;1.20;;;1.00;;
19883;SDS011;10104;50.732;10.174;2023-04-12T12:46:12;1.08;;;0.98;;
19883;SDS011;10104;50.732;10.174;2023-04-12T12:48:37;0.80;;;0.80;;
19883;SDS011;10104;50.732;10.174;2023-04-12T12:51:03;0.80;;;0.70;;
19883;SDS011;10104;50.732;10.174;2023-04-12T12:53:25;1.50;;;1.02;;
19883;SDS011;10104;50.732;10.174;2023-04-12T12:55:48;0.93;;;0.90;;
19883;SDS011;10104;50.732;10.174;2023-04-12T12:58:10;3.58;;;1.02;;
19883;SDS011;10104;50.732;10.174;2023-04-12T13:00:31;1.00;;;0.90;;
19883;SDS011;10104;50.732;10.174;2023-04-12T13:02:53;1.50;;;0.90;;
19883;SDS011;10104;50.732;10.174;2023-04-12T13:05:15;3.15;;;0.90;;
19883;SDS011;10104;50.732;10.174;2023-04-12T13:07:38;0.80;;;0.70;;
19883;SDS011;10104;50.732;10.174;2023-04-12T13:09:59;1.33;;;1.00;;
19883;SDS011;10104;50.732;10.174;2023-04-12T13:12:21;1.00;;;0.90;;
19883;SDS011;10104;50.732;10.174;2023-04-12T13:14:42;0.70;;;0.70;;
19883;SDS011;10104;50.732;10.174;2023-04-12T13:17:05;1.55;;;0.90;;
19883;SDS011;10104;50.732;10.174;2023-04-12T13:19:26;0.80;;;0.80;;
19883;SDS011;10104;50.732;10.174;2023-04-12T13:21:48;1.40;;;0.77;;
19883;SDS011;10104;50.732;10.174;2023-04-12T13:24:12;0.95;;;0.73;;
19883;SDS011;10104;50.732;10.174;2023-04-12T13:26:34;1.00;;;0.80;;
19883;SDS011;10104;50.732;10.174;2023-04-12T13:28:55;1.33;;;1.00;;
19883;SDS011;10104;50.732;10.174;2023-04-12T13:31:17;1.10;;;0.80;;
19883;SDS011;10104;50.732;10.174;2023-04-12T13:33:39;0.93;;;0.80;;
19883;SDS011;10104;50.732;10.174;2023-04-12T13:36:00;0.90;;;0.80;;
19883;SDS011;10104;50.732;10.174;2023-04-12T13:38:22;0.80;;;0.73;;
19883;SDS011;10104;50.732;10.174;2023-04-12T13:40:44;0.70;;;0.70;;
19883;SDS011;10104;50.732;10.174;2023-04-12T13:43:05;0.60;;;0.60;;
19883;SDS011;10104;50.732;10.174;2023-04-12T13:45:28;0.70;;;0.60;;
19883;SDS011;10104;50.732;10.174;2023-04-12T13:47:54;0.70;;;0.70;;
19883;SDS011;10104;50.732;10.174;2023-04-12T13:50:16;2.05;;;1.00;;
19883;SDS011;10104;50.732;10.174;2023-04-12T13:52:38;1.67;;;0.90;;
19883;SDS011;10104;50.732;10.174;2023-04-12T13:54:59;0.80;;;0.80;;
19883;SDS011;10104;50.732;10.174;2023-04-12T13:57:21;1.48;;;0.80;;
19883;SDS011;10104;50.732;10.174;2023-04-12T13:59:42;0.75;;;0.70;;
19883;SDS011;10104;50.732;10.174;2023-04-12T14:02:04;2.45;;;2.15;;
19883;SDS011;10104;50.732;10.174;2023-04-12T14:04:26;1.65;;;1.55;;
19883;SDS011;10104;50.732;10.174;2023-04-12T14:06:48;1.00;;;0.90;;
19883;SDS011;10104;50.732;10.174;2023-04-12T14:11:47;4.65;;;3.80;;
19883;SDS011;10104;50.732;10.174;2023-04-12T14:14:09;3.67;;;2.67;;
19883;SDS011;10104;50.732;10.174;2023-04-12T14:16:30;1.30;;;0.93;;
19883;SDS011;10104;50.732;10.174;2023-04-12T14:18:52;4.78;;;2.85;;
19883;SDS011;10104;50.732;10.174;2023-04-12T14:21:13;1.63;;;1.27;;
19883;SDS011;10104;50.732;10.174;2023-04-12T14:23:35;1.25;;;0.90;;
19883;SDS011;10104;50.732;10.174;2023-04-12T14:25:56;2.22;;;0.80;;
19883;SDS011;10104;50.732;10.174;2023-04-12T14:28:18;0.82;;;0.70;;
19883;SDS011;10104;50.732;10.174;2023-04-12T14:30:42;0.60;;;0.60;;
19883;SDS011;10104;50.732;10.174;2023-04-12T14:33:04;2.88;;;1.35;;